• Join FlightAware (Why Join?)
  • Login
  • US Flag 
01:17AM EDT


 

Airport Tracker/Info


-or-


 

Live Flight TrackerFlight Track Log ✈ N832R ✈ 16-Jun-2013 ✈ KORB - KEKM

Flight Track Log - Related Links

Times and Time Zones

All times are in EDT time to prevent confusion due to time zone crossing. See the N832R flight status page for this flight to view local times or setup timezone preferences in your user account.

Time Position Orientation Groundspeed Altitude Reporting Facility
EDT Latitude Longitude Course Direction KTS MPH feet Rate Location/Type
12:46PM 48.0150 -92.6928 122° Southeast 263 303 9,100  Level Minneapolis Center
12:47PM 47.9747 -92.5961 122° Southeast 267 307 13,000 3,360 Climbing Minneapolis Center
12:48PM 47.9267 -92.4994 127° Southeast 276 318 16,200 2,460 Climbing Minneapolis Center
12:49PM 47.8686 -92.3939 129° Southeast 298 343 18,700 2,640 Climbing Minneapolis Center
12:50PM 47.7608 -92.2469 137° Southeast 368 423 22,200 3,000 Climbing Minneapolis Center
12:51PM 47.6761 -92.1486 142° Southeast 382 440 25,000 2,640 Climbing Minneapolis Center
12:52PM 47.5900 -92.0469 141° Southeast 390 449 27,700 2,460 Climbing Minneapolis Center
12:53PM 47.5067 -91.9472 141° Southeast 387 445 30,200 2,280 Climbing Minneapolis Center
12:54PM 47.4214 -91.8483 142° Southeast 390 449 32,500 1,740 Climbing Minneapolis Center
12:55PM 47.3536 -91.7672 141° Southeast 391 450 33,900 1,740 Climbing Minneapolis Center
12:56PM 47.2322 -91.6256 142° Southeast 398 458 36,100 1,740 Climbing Minneapolis Center
12:57PM 47.1433 -91.5264 143° Southeast 400 460 37,500 1,200 Climbing Minneapolis Center
12:58PM 47.0575 -91.4272 142° Southeast 397 457 38,600 720 Climbing Minneapolis Center
12:59PM 46.9864 -91.3467 142° Southeast 401 461 39,100 600 Climbing Minneapolis Center
01:00PM 46.8789 -91.2258 142° Southeast 406 467 39,900 720 Climbing Minneapolis Center
01:01PM 46.7864 -91.1236 143° Southeast 398 458 40,700 480 Climbing Minneapolis Center
01:03PM 46.6978 -91.0233 142° Southeast 402 463 41,000 120 Climbing Minneapolis Center
01:04PM 46.5683 -90.8806 143° Southeast 417 480 41,000  Level Minneapolis Center
01:05PM 46.4739 -90.7750 142° Southeast 427 491 41,000  Level Minneapolis Center
01:06PM 46.3806 -90.6689 142° Southeast 427 491 41,000  Level Minneapolis Center
01:07PM 46.2831 -90.5625 143° Southeast 434 499 41,000  Level Minneapolis Center
01:08PM 46.1864 -90.4556 143° Southeast 438 504 41,000  Level Minneapolis Center
01:09PM 46.0881 -90.3486 143° Southeast 442 509 41,000  Level Minneapolis Center
01:10PM 45.9700 -90.2208 143° Southeast 445 512 41,000  Level Minneapolis Center
01:11PM 45.8706 -90.1125 143° Southeast 449 517 41,000  Level Minneapolis Center
01:12PM 45.7714 -90.0056 143° Southeast 449 517 41,000  Level Minneapolis Center
01:13PM 45.6719 -89.8986 143° Southeast 451 519 41,000  Level Minneapolis Center
01:14PM 45.5733 -89.7931 143° Southeast 448 516 41,000  Level Minneapolis Center
01:15PM 45.4553 -89.6678 143° Southeast 444 511 41,000  Level Minneapolis Center
01:16PM 45.3567 -89.5631 143° Southeast 444 511 41,000  Level Minneapolis Center
01:17PM 45.2581 -89.4589 143° Southeast 443 510 41,000  Level Minneapolis Center
01:18PM 45.1594 -89.3553 143° Southeast 442 509 41,000  Level Minneapolis Center
01:19PM 45.0589 -89.2508 144° Southeast 444 511 41,000  Level Minneapolis Center
01:20PM 44.9436 -89.1303 143° Southeast 443 510 41,000  Level Minneapolis Center
01:21PM 44.8442 -89.0256 143° Southeast 444 511 41,000  Level Minneapolis Center
01:22PM 44.7281 -88.9075 144° Southeast 441 507 41,000  Level Minneapolis Center
01:23PM 44.6292 -88.8036 143° Southeast 442 509 41,000  Level Minneapolis Center
01:25PM 44.5117 -88.6850 144° Southeast 443 510 41,000  Level Minneapolis Center
01:26PM 44.4117 -88.5822 144° Southeast 444 511 41,000  Level Minneapolis Center
01:27PM 44.2944 -88.4653 144° Southeast 443 510 41,000  Level Minneapolis Center
01:28PM 44.1953 -88.3653 144° Southeast 441 507 41,000  Level Minneapolis Center
01:29PM 44.1131 -88.2822 144° Southeast 438 504 41,000  Level Chicago Center
01:30PM 43.9983 -88.1681 144° Southeast 433 498 41,000  Level Chicago Center
01:31PM 43.8828 -88.0539 145° Southeast 433 498 41,000  Level Minneapolis Center
01:32PM 43.8014 -87.9725 144° Southeast 433 498 41,000  Level Chicago Center
01:33PM 43.7014 -87.8739 145° Southeast 436 502 41,000 -540 Level Chicago Center
01:34PM 43.5997 -87.7758 145° Southeast 442 509 39,900 -1,260 Descending Chicago Center
01:35PM 43.4947 -87.6719 144° Southeast 457 526 38,400 -1,560 Descending Chicago Center
01:36PM 43.3675 -87.5497 145° Southeast 474 545 36,700 -1,680 Descending Chicago Center
01:37PM 43.2650 -87.4511 145° Southeast 454 522 35,000 -1,440 Descending Chicago Center
01:38PM 43.1706 -87.3592 145° Southeast 435 501 33,800 -1,500 Descending Chicago Center
01:39PM 43.0681 -87.2597 145° Southeast 448 516 31,900 -1,800 Descending Chicago Center
01:40PM 42.9628 -87.1586 145° Southeast 461 531 30,200 -1,800 Descending Chicago Center
01:41PM 42.8561 -87.0586 145° Southeast 466 536 28,300 -2,040 Descending Chicago Center
01:42PM 42.7297 -86.9422 146° Southeast 461 531 26,000 -2,280 Descending Chicago Center
01:43PM 42.6297 -86.8481 145° Southeast 444 511 23,700 -2,520 Descending Chicago Center
01:44PM 42.5233 -86.7444 144° Southeast 423 487 20,900 -2,460 Descending Chicago Center
01:45PM 42.4403 -86.6678 146° Southeast 419 482 18,700 -2,220 Descending Chicago Center
01:46PM 42.3492 -86.5836 146° Southeast 403 464 16,400 -2,340 Descending Chicago Center
01:47PM 42.2567 -86.4986 146° Southeast 384 442 13,900 -2,040 Descending Chicago Center
01:48PM 42.1556 -86.4050 146° Southeast 368 423 12,200 -960 Descending Chicago Center
01:49PM 42.0781 -86.3325 145° Southeast 343 395 11,900 -900 Descending Chicago Center
01:50PM 42.0025 -86.2628 146° Southeast 333 383 10,400 -1,800 Descending Chicago Center
01:51PM 41.9342 -86.2008 146° Southeast 302 348 8,300 -2,100 Descending Chicago Center
01:52PM 41.8722 -86.1444 146° Southeast 275 316 6,100 -2,040 Descending Chicago Center
01:54PM 41.8133 -86.0914 146° Southeast 260 299 4,200 -1,620 Descending Chicago Center
01:55PM 41.7639 -86.0233 134° Southeast 234 269 2,800 -1,020 Descending Chicago Center
01:56PM 41.7558 -85.9594 100° East 200 230 2,100 -780 Descending Chicago Center
01:57PM 41.7208 -85.9658 188° South 159 183 1,300 -540 Descending Chicago Center
01:58PM 41.7228 -86.0058 274° West 144 166 1,000 -300 Descending Chicago Center
02:00PM 41.7167 -86.0000 143° Southeast  Level FlightAware Approximate